createdAt,value
2019-02-02T00:00:33.188Z,24.93
2019-02-02T00:03:02.327Z,22.57
2019-02-02T00:05:34.045Z,21.17
2019-02-02T00:08:03.006Z,24.93
2019-02-02T00:10:31.890Z,19.77
2019-02-02T00:13:00.862Z,20.00
2019-02-02T00:15:42.001Z,30.17
2019-02-02T00:18:13.958Z,28.57
2019-02-02T00:20:43.059Z,23.00
2019-02-02T00:23:14.797Z,24.53
2019-02-02T00:25:46.864Z,29.53
2019-02-02T00:28:15.760Z,34.13
2019-02-02T00:30:44.843Z,30.87
2019-02-02T00:33:15.175Z,25.83
2019-02-02T00:35:44.102Z,29.90
2019-02-02T00:38:12.981Z,30.53
2019-02-02T00:40:47.046Z,27.97
2019-02-02T00:43:15.924Z,32.73
2019-02-02T00:45:47.737Z,34.30
2019-02-02T00:48:16.690Z,36.77
2019-02-02T00:50:48.358Z,34.33
2019-02-02T00:53:17.315Z,33.80
2019-02-02T00:55:46.309Z,31.37
2019-02-02T00:58:15.224Z,34.40
2019-02-02T01:00:47.508Z,35.57
2019-02-02T01:03:16.456Z,38.67
2019-02-02T01:05:45.348Z,34.03
2019-02-02T01:08:14.213Z,36.87
2019-02-02T01:10:43.444Z,37.97
2019-02-02T01:13:12.721Z,36.60
2019-02-02T01:15:41.665Z,38.83
2019-02-02T01:18:11.656Z,37.77
2019-02-02T01:20:43.454Z,38.57
2019-02-02T01:23:12.416Z,34.87
2019-02-02T01:25:44.291Z,33.17
2019-02-02T01:28:13.493Z,33.07
2019-02-02T01:30:42.973Z,30.67
2019-02-02T01:33:16.182Z,37.33
2019-02-02T01:35:47.928Z,36.90
2019-02-02T01:38:19.660Z,38.43
2019-02-02T01:40:48.637Z,35.10
2019-02-02T01:43:23.772Z,34.67
2019-02-02T01:45:52.581Z,39.17
2019-02-02T01:48:21.534Z,35.83
2019-02-02T01:50:51.770Z,37.57
2019-02-02T01:53:26.876Z,33.83
2019-02-02T01:55:55.750Z,39.30
2019-02-02T01:58:24.646Z,38.10
2019-02-02T02:00:53.600Z,38.47
2019-02-02T02:03:22.577Z,37.40
2019-02-02T02:05:51.776Z,35.50
2019-02-02T02:08:20.740Z,35.93
2019-02-02T02:10:49.747Z,39.13
2019-02-02T02:13:18.693Z,35.23
2019-02-02T02:15:51.082Z,36.33
2019-02-02T02:18:20.077Z,34.63
2019-02-02T02:20:52.265Z,37.37
2019-02-02T02:23:24.268Z,34.43
2019-02-02T02:25:56.153Z,36.20
2019-02-02T02:28:28.517Z,33.67
2019-02-02T02:30:57.456Z,33.43
2019-02-02T02:33:29.166Z,34.57
2019-02-02T02:36:07.145Z,32.10
2019-02-02T02:38:38.936Z,37.00
2019-02-02T02:41:08.110Z,31.63
2019-02-02T02:43:37.035Z,33.27
2019-02-02T02:46:06.040Z,34.17
2019-02-02T02:48:38.025Z,37.30
2019-02-02T02:51:07.058Z,30.40
2019-02-02T02:53:37.129Z,35.17
2019-02-02T02:56:06.181Z,35.83
2019-02-02T02:58:41.479Z,34.07
2019-02-02T03:01:05.732Z,35.97
2019-02-02T03:03:34.945Z,36.90
2019-02-02T03:06:03.888Z,33.63
2019-02-02T03:08:35.841Z,35.23
2019-02-02T03:11:05.113Z,34.33
2019-02-02T03:13:34.087Z,37.70
2019-02-02T03:16:02.983Z,36.43
2019-02-02T03:18:35.051Z,31.00
2019-02-02T03:21:04.008Z,32.43
2019-02-02T03:23:35.910Z,32.93
2019-02-02T03:26:05.058Z,36.30
2019-02-02T03:28:33.941Z,37.57
2019-02-02T03:31:02.893Z,36.63
2019-02-02T03:33:37.559Z,37.70
2019-02-02T03:36:06.443Z,29.50
2019-02-02T03:38:50.412Z,37.53
2019-02-02T03:41:25.387Z,41.20
2019-02-02T03:44:00.386Z,39.73
2019-02-02T03:46:32.006Z,41.23
2019-02-02T03:49:00.950Z,47.27
2019-02-02T03:51:30.164Z,34.53
2019-02-02T03:54:08.161Z,36.57
2019-02-02T03:56:29.761Z,40.83
2019-02-02T03:59:06.498Z,34.33
2019-02-02T04:01:32.007Z,38.77
2019-02-02T04:04:06.033Z,37.37
2019-02-02T04:06:37.345Z,34.73
2019-02-02T04:09:07.820Z,40.77
2019-02-02T04:11:36.780Z,38.53
2019-02-02T04:14:05.774Z,38.83
2019-02-02T04:16:40.755Z,41.33
2019-02-02T04:19:09.727Z,38.87
2019-02-02T04:21:41.477Z,39.17
2019-02-02T04:24:10.603Z,35.30
2019-02-02T04:26:45.855Z,37.97
2019-02-02T04:29:17.831Z,37.67
2019-02-02T04:31:49.594Z,40.93
2019-02-02T04:34:20.261Z,44.03
2019-02-02T04:36:49.177Z,48.10
2019-02-02T04:39:21.474Z,56.20
2019-02-02T04:41:53.302Z,49.93
2019-02-02T04:44:22.106Z,44.47
2019-02-02T04:46:50.992Z,54.37
2019-02-02T04:49:19.845Z,49.90
2019-02-02T04:51:52.098Z,51.53
2019-02-02T04:54:21.331Z,50.97
2019-02-02T04:56:50.292Z,49.47
2019-02-02T04:59:29.122Z,53.23
2019-02-02T05:01:52.833Z,50.93
2019-02-02T05:04:21.753Z,47.40
2019-02-02T05:06:50.801Z,56.33
2019-02-02T05:09:19.733Z,53.80
2019-02-02T05:11:51.642Z,54.17
2019-02-02T05:14:20.848Z,50.00
2019-02-02T05:16:52.835Z,56.70
2019-02-02T05:19:22.217Z,49.63
2019-02-02T05:21:53.860Z,43.20
2019-02-02T05:24:28.824Z,40.57
2019-02-02T05:26:58.085Z,37.87
2019-02-02T05:29:27.256Z,39.93
2019-02-02T05:32:02.314Z,42.17
2019-02-02T05:34:34.203Z,37.90
2019-02-02T05:37:03.112Z,41.97
2019-02-02T05:39:32.006Z,41.17
2019-02-02T05:42:00.921Z,43.70
2019-02-02T05:44:29.974Z,39.03
2019-02-02T05:47:05.129Z,41.37
2019-02-02T05:49:38.535Z,45.07
2019-02-02T05:52:07.522Z,45.87
2019-02-02T05:54:36.709Z,39.93
2019-02-02T05:57:05.670Z,40.27
2019-02-02T05:59:34.478Z,39.80
2019-02-02T06:02:03.432Z,37.00
2019-02-02T06:04:38.334Z,46.23
2019-02-02T06:07:07.312Z,44.13
2019-02-02T06:09:42.369Z,40.00
2019-02-02T06:12:14.111Z,44.33
2019-02-02T06:14:46.105Z,50.13
2019-02-02T06:17:17.921Z,46.87
2019-02-02T06:19:46.725Z,48.17
2019-02-02T06:22:15.604Z,45.73
2019-02-02T06:24:47.597Z,41.47
2019-02-02T06:27:16.481Z,45.50
2019-02-02T06:29:45.358Z,47.17
2019-02-02T06:32:14.173Z,52.57
2019-02-02T06:34:43.003Z,53.17
2019-02-02T06:37:11.903Z,67.97
2019-02-02T06:39:43.549Z,54.90
2019-02-02T06:42:12.466Z,59.97
2019-02-02T06:44:41.280Z,62.13
2019-02-02T06:47:16.066Z,64.10
2019-02-02T06:49:51.085Z,61.67
2019-02-02T06:52:22.864Z,59.20
2019-02-02T06:54:51.848Z,75.80
2019-02-02T06:57:30.014Z,60.63
2019-02-02T06:59:58.900Z,59.20
2019-02-02T07:02:27.886Z,61.53
2019-02-02T07:04:56.799Z,58.00
2019-02-02T07:07:31.608Z,57.00
2019-02-02T07:10:00.848Z,61.20
2019-02-02T07:12:29.857Z,75.20
2019-02-02T07:14:58.974Z,79.53
2019-02-02T07:17:28.384Z,76.10
2019-02-02T07:20:00.556Z,71.50
2019-02-02T07:22:29.437Z,78.10
2019-02-02T07:24:58.348Z,105.40
2019-02-02T07:27:30.057Z,83.00
2019-02-02T07:29:59.012Z,90.73
2019-02-02T07:32:31.752Z,105.63
2019-02-02T07:35:01.717Z,78.67
2019-02-02T07:37:36.512Z,80.40
2019-02-02T07:40:10.936Z,73.07
2019-02-02T07:42:37.477Z,73.77
2019-02-02T07:45:11.564Z,73.03
2019-02-02T07:47:40.789Z,68.97
2019-02-02T07:50:11.334Z,62.40
2019-02-02T07:52:43.195Z,62.73
2019-02-02T07:55:13.270Z,69.57
2019-02-02T07:57:42.274Z,67.50
2019-02-02T08:00:17.823Z,65.53
2019-02-02T08:02:46.799Z,68.20
2019-02-02T08:05:15.665Z,68.27
2019-02-02T08:07:44.509Z,64.07
2019-02-02T08:10:13.910Z,69.57
2019-02-02T08:12:45.671Z,83.17
2019-02-02T08:15:19.582Z,76.30
2019-02-02T08:17:52.493Z,75.13
2019-02-02T08:20:24.110Z,73.67
2019-02-02T08:22:56.355Z,91.23
2019-02-02T08:25:24.098Z,76.03
2019-02-02T08:27:55.218Z,90.70
2019-02-02T08:30:28.929Z,78.33
2019-02-02T08:32:58.021Z,84.63
2019-02-02T08:35:30.055Z,79.50
2019-02-02T08:37:58.934Z,77.50
2019-02-02T08:40:28.219Z,79.90
2019-02-02T08:42:59.970Z,89.30
2019-02-02T08:45:32.073Z,74.77
2019-02-02T08:48:00.876Z,71.83
2019-02-02T08:50:35.012Z,81.10
2019-02-02T08:53:07.542Z,91.20
2019-02-02T08:55:37.522Z,78.30
2019-02-02T08:58:09.799Z,67.27
2019-02-02T09:00:41.805Z,73.20
2019-02-02T09:03:12.270Z,76.20
2019-02-02T09:05:44.119Z,71.87
2019-02-02T09:08:13.066Z,86.60
2019-02-02T09:10:44.737Z,71.00
2019-02-02T09:13:13.610Z,71.73
2019-02-02T09:15:42.990Z,66.83
2019-02-02T09:18:17.253Z,64.50
2019-02-02T09:20:46.121Z,60.60
2019-02-02T09:23:15.182Z,62.37
2019-02-02T09:25:44.127Z,54.73
2019-02-02T09:28:16.110Z,57.30
2019-02-02T09:30:48.132Z,56.83
2019-02-02T09:33:21.948Z,47.90
2019-02-02T09:35:54.932Z,60.20
2019-02-02T09:38:26.817Z,64.83
2019-02-02T09:40:55.807Z,70.30
2019-02-02T09:43:28.984Z,56.67
2019-02-02T09:46:01.270Z,65.50
2019-02-02T09:48:31.375Z,50.83
2019-02-02T09:51:03.372Z,57.63
2019-02-02T09:53:32.269Z,48.97
2019-02-02T09:56:04.486Z,59.53
2019-02-02T09:58:33.448Z,63.80
2019-02-02T10:01:08.104Z,57.40
2019-02-02T10:03:37.188Z,60.47
2019-02-02T10:06:06.322Z,61.17
2019-02-02T10:08:38.049Z,68.13
2019-02-02T10:11:16.071Z,62.97
2019-02-02T10:13:52.152Z,70.77
2019-02-02T10:16:24.359Z,62.63
2019-02-02T10:18:53.258Z,64.10
2019-02-02T10:21:22.089Z,56.47
2019-02-02T10:23:54.881Z,61.23
2019-02-02T10:26:24.014Z,64.73
2019-02-02T10:28:52.974Z,71.30
2019-02-02T10:31:38.908Z,48.90
2019-02-02T10:33:58.525Z,59.27
2019-02-02T10:36:27.429Z,58.00
2019-02-02T10:38:56.265Z,58.70
2019-02-02T10:41:25.721Z,71.40
2019-02-02T10:43:54.648Z,60.87
2019-02-02T10:46:23.688Z,55.43
2019-02-02T10:48:58.569Z,56.00
2019-02-02T10:51:28.114Z,57.60
2019-02-02T10:53:57.090Z,71.70
2019-02-02T10:56:29.140Z,62.43
2019-02-02T10:58:58.062Z,70.60
2019-02-02T11:01:34.058Z,73.07
2019-02-02T11:04:00.363Z,61.93
2019-02-02T11:06:41.347Z,62.63
2019-02-02T11:09:10.605Z,53.73
2019-02-02T11:11:42.709Z,49.87
2019-02-02T11:14:14.582Z,48.43
2019-02-02T11:16:43.682Z,48.57
2019-02-02T11:19:15.705Z,52.37
2019-02-02T11:21:44.849Z,46.67
2019-02-02T11:24:13.763Z,47.10
2019-02-02T11:26:42.809Z,44.10
2019-02-02T11:29:11.861Z,43.33
2019-02-02T11:31:42.580Z,35.60
2019-02-02T11:34:14.644Z,46.33
2019-02-02T11:36:49.787Z,41.17
2019-02-02T11:39:18.811Z,48.87
2019-02-02T11:42:00.366Z,40.63
2019-02-02T11:44:29.332Z,45.33
2019-02-02T11:46:58.647Z,38.20
2019-02-02T11:49:30.805Z,43.37
2019-02-02T11:52:05.429Z,43.97
2019-02-02T11:54:37.765Z,40.50
2019-02-02T11:57:06.724Z,41.20
2019-02-02T11:59:35.893Z,44.03
2019-02-02T12:02:14.300Z,44.33
2019-02-02T12:04:42.353Z,42.73
2019-02-02T12:07:11.382Z,46.77
2019-02-02T12:09:40.332Z,45.60
2019-02-02T12:12:09.328Z,37.60
2019-02-02T12:14:44.403Z,46.53
2019-02-02T12:17:16.425Z,44.80
2019-02-02T12:19:51.891Z,45.30
2019-02-02T12:22:22.949Z,47.70
2019-02-02T12:24:52.630Z,45.70
2019-02-02T12:27:21.530Z,46.10
2019-02-02T12:29:50.702Z,46.00
2019-02-02T12:32:26.640Z,51.13
2019-02-02T12:34:50.250Z,42.23
2019-02-02T12:37:19.285Z,42.13
2019-02-02T12:39:49.468Z,43.20
2019-02-02T12:42:22.858Z,42.67
2019-02-02T12:44:56.535Z,44.43
2019-02-02T12:47:27.444Z,45.77
2019-02-02T12:49:56.463Z,50.33
2019-02-02T12:52:31.131Z,54.60
2019-02-02T12:55:06.049Z,52.67
2019-02-02T12:57:37.959Z,34.83
2019-02-02T13:00:10.894Z,36.43
2019-02-02T13:02:39.931Z,40.00
2019-02-02T13:05:13.166Z,42.47
2019-02-02T13:07:48.389Z,281.63
2019-02-02T13:10:20.959Z,388.23
2019-02-02T13:12:57.541Z,43.90
2019-02-02T13:15:29.542Z,53.10
2019-02-02T13:17:58.533Z,43.77
2019-02-02T13:20:29.883Z,45.00
2019-02-02T13:22:59.312Z,48.80
2019-02-02T13:25:28.468Z,50.30
2019-02-02T13:27:57.541Z,52.37
2019-02-02T13:30:33.279Z,54.67
2019-02-02T13:33:02.545Z,58.40
2019-02-02T13:35:33.150Z,57.57
2019-02-02T13:38:05.335Z,55.13
2019-02-02T13:40:34.189Z,56.27
2019-02-02T13:43:03.195Z,57.80
2019-02-02T13:45:32.175Z,54.10
2019-02-02T13:48:01.094Z,54.87
2019-02-02T13:50:33.229Z,53.47
2019-02-02T13:53:02.557Z,49.63
2019-02-02T13:55:31.526Z,52.23
2019-02-02T13:58:00.417Z,48.37
2019-02-02T14:00:30.718Z,52.20
2019-02-02T14:03:03.855Z,58.50
2019-02-02T14:05:36.005Z,51.67
2019-02-02T14:08:07.739Z,54.47
2019-02-02T14:10:37.050Z,56.10
2019-02-02T14:13:06.317Z,59.77
2019-02-02T14:15:41.326Z,59.40
2019-02-02T14:18:10.323Z,50.77
2019-02-02T14:20:39.183Z,52.20
2019-02-02T14:23:14.214Z,52.87
2019-02-02T14:25:46.084Z,56.07
2019-02-02T14:28:15.080Z,52.00
2019-02-02T14:30:44.070Z,55.27
2019-02-02T14:33:15.977Z,55.90
2019-02-02T14:35:47.756Z,59.93
2019-02-02T14:38:20.450Z,55.37
2019-02-02T14:40:52.283Z,53.97
2019-02-02T14:43:21.305Z,54.73
2019-02-02T14:45:50.314Z,58.10
2019-02-02T14:48:19.248Z,59.40
2019-02-02T14:50:51.206Z,60.53
2019-02-02T14:53:20.051Z,58.37
2019-02-02T14:55:49.023Z,60.60
2019-02-02T14:58:18.134Z,66.00
2019-02-02T15:00:47.193Z,66.93
2019-02-02T15:03:25.842Z,64.60
2019-02-02T15:05:49.882Z,66.47
2019-02-02T15:08:19.225Z,80.43
2019-02-02T15:10:54.348Z,67.63
2019-02-02T15:13:23.529Z,65.73
2019-02-02T15:15:52.433Z,72.37
2019-02-02T15:18:24.193Z,66.93
2019-02-02T15:20:55.945Z,71.30
2019-02-02T15:23:25.289Z,69.53
2019-02-02T15:25:54.670Z,68.57
2019-02-02T15:28:24.935Z,76.07
2019-02-02T15:30:59.842Z,72.67
2019-02-02T15:33:37.505Z,71.77
2019-02-02T15:35:59.868Z,74.67
2019-02-02T15:38:28.791Z,74.37
2019-02-02T15:41:00.526Z,73.60
2019-02-02T15:43:35.300Z,69.53
2019-02-02T15:46:04.299Z,72.60
2019-02-02T15:48:33.649Z,77.27
2019-02-02T15:51:02.659Z,65.77
2019-02-02T15:53:35.323Z,69.23
2019-02-02T15:56:07.152Z,78.70
2019-02-02T15:58:37.353Z,68.40
2019-02-02T16:01:06.361Z,68.97
2019-02-02T16:03:49.184Z,65.37
2019-02-02T16:06:08.753Z,70.03
2019-02-02T16:08:37.611Z,76.87
2019-02-02T16:11:09.857Z,86.07
2019-02-02T16:13:39.629Z,87.40
2019-02-02T16:16:11.721Z,91.03
2019-02-02T16:18:40.677Z,96.60
2019-02-02T16:21:11.318Z,94.27
2019-02-02T16:23:40.280Z,86.67
2019-02-02T16:26:09.444Z,84.27
2019-02-02T16:28:41.489Z,79.93
2019-02-02T16:31:10.562Z,79.83
2019-02-02T16:33:39.631Z,83.50
2019-02-02T16:36:11.293Z,109.20
2019-02-02T16:38:40.284Z,110.43
2019-02-02T16:41:09.631Z,107.20
2019-02-02T16:43:38.602Z,109.17
2019-02-02T16:46:10.709Z,103.37
2019-02-02T16:48:40.458Z,91.90
2019-02-02T16:51:09.569Z,90.70
2019-02-02T16:53:38.404Z,90.43
2019-02-02T16:56:10.462Z,88.00
2019-02-02T16:58:39.493Z,96.63
2019-02-02T17:01:08.425Z,82.00
2019-02-02T17:03:37.479Z,83.03
2019-02-02T17:06:06.440Z,98.13
2019-02-02T17:08:38.241Z,95.37
2019-02-02T17:11:07.516Z,107.40
2019-02-02T17:13:39.468Z,97.63
2019-02-02T17:16:16.717Z,98.03
2019-02-02T17:18:45.945Z,98.30
2019-02-02T17:21:18.035Z,88.90
2019-02-02T17:23:46.858Z,90.57
2019-02-02T17:26:15.802Z,91.27
2019-02-02T17:28:44.693Z,100.45
2019-02-02T17:31:13.700Z,96.43
2019-02-02T17:33:42.629Z,101.13
2019-02-02T17:36:11.662Z,90.63
2019-02-02T17:38:40.627Z,87.97
2019-02-02T17:41:09.621Z,80.63
2019-02-02T17:43:38.675Z,85.87
2019-02-02T17:46:07.605Z,86.13
2019-02-02T17:48:39.840Z,87.83
2019-02-02T17:51:08.841Z,108.00
2019-02-02T17:53:37.821Z,100.70
2019-02-02T17:56:06.890Z,100.10
2019-02-02T17:58:41.512Z,119.23
2019-02-02T18:01:16.518Z,113.60
2019-02-02T18:03:45.740Z,101.40
2019-02-02T18:06:15.821Z,110.90
2019-02-02T18:08:45.268Z,108.10
2019-02-02T18:11:20.907Z,110.47
2019-02-02T18:13:50.063Z,102.87
2019-02-02T18:16:25.182Z,96.47
2019-02-02T18:18:54.116Z,94.87
2019-02-02T18:21:26.190Z,93.47
2019-02-02T18:23:57.968Z,99.47
2019-02-02T18:26:29.754Z,92.50
2019-02-02T18:29:00.207Z,102.23
2019-02-02T18:31:35.518Z,97.73
2019-02-02T18:34:04.852Z,94.80
2019-02-02T18:36:35.502Z,94.93
2019-02-02T18:39:07.479Z,94.77
2019-02-02T18:41:39.664Z,88.87
2019-02-02T18:44:08.085Z,87.90
2019-02-02T18:46:39.913Z,86.33
2019-02-02T18:49:12.214Z,86.90
2019-02-02T18:51:41.807Z,85.53
2019-02-02T18:54:10.748Z,83.50
2019-02-02T18:56:39.861Z,72.90
2019-02-02T18:59:09.085Z,71.23
2019-02-02T19:01:39.739Z,56.77
2019-02-02T19:04:09.024Z,50.77
2019-02-02T19:06:37.994Z,56.83
2019-02-02T19:09:08.418Z,47.50
2019-02-02T19:11:46.995Z,48.40
2019-02-02T19:14:17.266Z,44.53
2019-02-02T19:16:46.287Z,46.40
2019-02-02T19:19:15.245Z,51.03
2019-02-02T19:21:44.308Z,48.33
2019-02-02T19:24:18.650Z,44.53
2019-02-02T19:26:47.802Z,44.37
2019-02-02T19:29:16.957Z,45.70
2019-02-02T19:31:45.880Z,48.67
2019-02-02T19:34:18.394Z,45.93
2019-02-02T19:36:47.493Z,44.33
2019-02-02T19:39:16.666Z,48.23
2019-02-02T19:41:45.478Z,43.73
2019-02-02T19:44:16.918Z,45.77
2019-02-02T19:46:51.501Z,45.63
2019-02-02T19:49:20.418Z,48.03
2019-02-02T19:51:51.067Z,51.90
2019-02-02T19:54:23.138Z,56.40
2019-02-02T19:56:55.087Z,58.33
2019-02-02T19:59:28.954Z,54.13
2019-02-02T20:02:07.140Z,53.10
2019-02-02T20:04:41.069Z,48.27
2019-02-02T20:07:12.613Z,48.40
2019-02-02T20:09:41.539Z,45.37
2019-02-02T20:12:13.525Z,51.20
2019-02-02T20:14:45.942Z,52.10
2019-02-02T20:17:20.729Z,52.37
2019-02-02T20:19:53.502Z,54.60
2019-02-02T20:22:22.580Z,53.77
2019-02-02T20:24:51.524Z,55.53
2019-02-02T20:27:20.517Z,51.47
2019-02-02T20:29:50.051Z,49.63
2019-02-02T20:32:20.881Z,44.27
2019-02-02T20:34:50.304Z,48.93
2019-02-02T20:37:19.381Z,45.60
2019-02-02T20:39:54.575Z,42.77
2019-02-02T20:42:29.866Z,47.47
2019-02-02T20:44:59.418Z,46.33
2019-02-02T20:47:30.737Z,47.50
2019-02-02T20:50:00.208Z,43.03
2019-02-02T20:52:32.105Z,40.97
2019-02-02T20:55:04.522Z,43.93
2019-02-02T20:57:33.452Z,45.10
2019-02-02T21:00:02.455Z,44.33
2019-02-02T21:02:33.750Z,39.33
2019-02-02T21:05:02.757Z,43.00
2019-02-02T21:07:41.033Z,40.03
2019-02-02T21:10:20.680Z,40.37
2019-02-02T21:12:50.413Z,38.07
2019-02-02T21:15:19.888Z,36.40
2019-02-02T21:17:51.889Z,33.20
2019-02-02T21:20:25.521Z,36.83
2019-02-02T21:22:54.686Z,38.77
2019-02-02T21:25:23.852Z,37.50
2019-02-02T21:27:52.818Z,34.43
2019-02-02T21:30:26.805Z,34.97
2019-02-02T21:32:55.849Z,39.77
2019-02-02T21:35:27.961Z,37.30
2019-02-02T21:37:57.041Z,36.63
2019-02-02T21:40:34.138Z,38.50
2019-02-02T21:43:03.047Z,35.77
2019-02-02T21:45:32.013Z,37.37
2019-02-02T21:48:01.322Z,44.37
2019-02-02T21:50:30.277Z,33.37
2019-02-02T21:53:02.293Z,35.40
2019-02-02T21:55:34.369Z,32.07
2019-02-02T21:58:09.294Z,31.77
2019-02-02T22:00:40.161Z,30.67
2019-02-02T22:03:09.154Z,29.93
2019-02-02T22:05:38.148Z,30.73
2019-02-02T22:08:13.353Z,27.43
2019-02-02T22:10:45.635Z,27.10
2019-02-02T22:13:15.282Z,26.10
2019-02-02T22:15:50.143Z,24.80
2019-02-02T22:18:25.068Z,22.00
2019-02-02T22:20:54.777Z,21.67
2019-02-02T22:23:23.684Z,20.33
2019-02-02T22:25:53.724Z,20.67
2019-02-02T22:28:22.694Z,20.53
2019-02-02T22:30:54.185Z,24.80
2019-02-02T22:33:22.755Z,27.53
2019-02-02T22:35:51.630Z,28.30
2019-02-02T22:38:24.577Z,27.23
2019-02-02T22:40:59.351Z,28.67
2019-02-02T22:43:28.582Z,28.57
2019-02-02T22:46:00.991Z,29.60
2019-02-02T22:48:32.578Z,30.63
2019-02-02T22:51:05.158Z,27.90
2019-02-02T22:53:36.934Z,31.83
2019-02-02T22:56:06.122Z,29.27
2019-02-02T22:58:35.140Z,28.47
2019-02-02T23:01:24.741Z,29.20
2019-02-02T23:04:21.665Z,28.27
2019-02-02T23:07:23.795Z,30.53
2019-02-02T23:10:29.427Z,32.93
2019-02-02T23:13:29.736Z,34.30
2019-02-02T23:16:30.630Z,35.60
2019-02-02T23:19:02.138Z,31.60
2019-02-02T23:21:34.400Z,33.67
2019-02-02T23:24:04.628Z,31.03
2019-02-02T23:26:34.349Z,33.00
2019-02-02T23:29:05.697Z,32.67
2019-02-02T23:31:43.421Z,37.53
2019-02-02T23:34:18.455Z,34.07
2019-02-02T23:36:55.902Z,31.50
2019-02-02T23:39:27.505Z,29.70
2019-02-02T23:41:56.488Z,33.97
2019-02-02T23:44:28.357Z,30.10
2019-02-02T23:46:57.441Z,30.90
2019-02-02T23:49:26.337Z,30.53
2019-02-02T23:51:55.594Z,30.47
2019-02-02T23:54:27.269Z,29.53
2019-02-02T23:56:56.233Z,29.37
2019-02-02T23:59:28.003Z,30.50
